x

Ne Bahamas - 350 Nm Ene Of Nassau, Bahamas (41047) Wave Buoy

8:50am - Mon 20th Oct 2014 All times are UTC.

  • Sig Wave height 3.9ft
  • Swell Direction
  • Peak Period 8s
  • Average Period 6s
  • Wind
    4mph, 7mph gusts
  • Sea Temp 82°f
  • Air Temp 79°f
  • Sea Pressure 1016mb

More Historic Weather Station data

Upgrade to MSW Pro to gain access to the past 30 days of data for over 8000 Wavebouys and Weather Stations around the globe.

Join Pro

Comparision Forecast

View Surf forecast
   
Mon 10/20 8:50am 4ft 8s 6s 4 7 mph 1016mb 82f 79f
7:50am 4.5ft 9s 7s 7 9 mph 1015.7mb 82f 79f
6:50am 4ft 8s 7s 2
mph
1016mb 82f 79f
5:50am 3.5ft 8s 7s  -  2 mph 1016.6mb 82f 79f
2:50am 4ft 8s 7s 4 9 mph 1016.6mb 82f 80f
1:50am 4ft 8s 7s 7
mph
1016.5mb 82f 80f
12:50am 4ft 9s 7s 7 9 mph 1016.1mb 82f 80f
Sun 10/19 11:50pm 3.5ft 11s 7s 4 9 mph 1015.8mb 82f 80f
10:50pm 4.5ft 9s 7s 7 9 mph 1015.4mb 83f 80f
9:50pm 4.5ft 9s 7s 7 9 mph 1015mb 83f 80f
8:50pm 4.5ft 9s 7s 9 11 mph 1014.9mb 83f 80f
7:50pm 5ft 10s 7s 9 11 mph 1014.8mb 83f 80f
6:50pm 4.5ft 10s 7s 9 11 mph 1014.6mb 83f 80f
5:50pm 5ft 10s 7s 4 7 mph 1014.7mb 83f 80f
4:50pm 4.5ft 9s 7s 4 7 mph 1015.1mb 83f 80f
3:50pm 4.5ft 10s 7s  -  7 mph 1015.8mb 83f 79f
2:50pm 5ft 8s 7s 2 4 mph 1015.9mb 82f 79f
1:50pm 4.5ft 8s 7s 4
mph
1016mb 82f 79f
12:50pm 4.5ft 9s 7s 4
mph
1016mb 82f 79f
11:50am 5ft 9s 7s 4 7 mph 1015.4mb 82f 79f
10:50am 6ft 10s 8s 4 7 mph 1014.8mb 82f 78f
9:50am 5.5ft 9s 7s 2 4 mph 1014.3mb 82f 78f
8:50am 6.5ft 10s 8s  -  2 mph 1013.9mb 82f 78f
7:50am 6.5ft 10s 8s  -  2 mph 1013.8mb 82f 78f
6:50am 6ft 10s 8s  -  2 mph 1014mb 82f 78f
5:50am 6ft 11s 8s  -  2 mph 1014.3mb 82f 78f
4:50am 5.5ft 11s 7s  -  4 mph 1014.6mb 82f 79f
3:50am 6ft 9s 8s 2 4 mph 1014.7mb 82f 79f
2:50am 7ft 11s 8s  -  2 mph 1015.2mb 82f 79f
1:50am 7ft 11s 8s  -  2 mph 1015mb 82f 79f
12:50am 6.5ft 11s 8s 2 4 mph 1014.9mb 82f 79f
Sat 10/18 11:50pm 8ft 11s 8s 4
mph
1014.2mb 82f 79f
10:50pm 7ft 11s 8s 4 7 mph 1013.4mb 82f 79f
9:50pm 6.5ft 11s 8s 4 7 mph 1012.9mb 83f 80f
8:50pm 7ft 11s 8s 7 9 mph 1012.7mb 83f 80f
7:50pm 6.5ft 10s 8s 4 7 mph 1012.6mb 83f 80f
6:50pm 7ft 11s 8s 4 7 mph 1012.6mb 83f 80f
5:50pm 7ft 11s 8s 4 7 mph 1013mb 83f 80f
4:50pm 7.5ft 11s 8s 4 7 mph 1013.5mb 82f 80f
3:50pm 7ft 12s 8s 7 9 mph 1013.8mb 82f 80f
2:50pm 7.5ft 11s 8s 9 13 mph 1013.9mb 82f 80f
12:50pm 7.5ft 11s 8s 13 18 mph 1013.3mb 82f 79f
11:50am 6.5ft 10s 8s 9 11 mph 1012.6mb 82f 80f
10:50am 7ft 11s 8s 9 11 mph 1012.1mb 82f 80f
9:50am 7ft 11s 8s 7 9 mph 1011.7mb 82f 80f
8:50am 7.5ft 11s 8s 7 9 mph 1011.3mb 82f 80f
7:50am 7ft 11s 8s 4 7 mph 1011.3mb 82f 79f
6:50am 7.5ft 11s 8s 4 7 mph 1011.6mb 82f 80f
5:50am 8ft 11s 8s 2 7 mph 1011.9mb 82f 79f
4:50am 8ft 12s 8s 4 7 mph 1012mb 82f 79f
3:50am 7.5ft 12s 7s 7 9 mph 1012.1mb 82f 80f
2:50am 7ft 13s 7s 7 9 mph 1012.2mb 82f 80f
1:50am 7ft 11s 7s 4 7 mph 1012.2mb 82f 80f
12:50am 7ft 11s 7s 4 7 mph 1011.9mb 82f 80f
Fri 10/17 11:50pm 7ft 9s 7s 4 7 mph 1011.6mb 82f 80f
10:50pm 8ft 11s 7s 7 9 mph 1011.1mb 82f 80f
9:50pm 7.5ft 11s 7s 9 11 mph 1010.7mb 82f 80f
8:50pm 7ft 12s 7s 13 16 mph 1010.3mb 82f 80f
7:50pm 8.5ft 12s 8s 11 16 mph 1010.2mb 82f 81f
6:50pm 8ft 12s 7s 13 18 mph 1010.1mb 82f 80f
5:50pm 9ft 12s 7s 16 18 mph 1010.3mb 82f 80f
4:50pm 9ft 12s 7s 18 22 mph 1011mb 82f 80f
3:50pm 9ft 13s 8s 18 22 mph 1011.7mb 82f 81f
2:50pm 9ft 12s 7s 18 22 mph 1011.7mb 82f 81f
1:50pm 10ft 13s 7s 20 22 mph 1011.4mb 82f 81f
12:50pm 11.5ft 12s 8s 18 22 mph 1010.9mb 82f 81f
11:50am 10ft 12s 8s 22 27 mph 1009.7mb 82f 80f
10:50am 10ft 13s 8s 25 29 mph 1008.6mb 82f 80f
9:50am 10ft 11s 8s 22 31 mph 1007.9mb 82f 81f
8:50am 9.5ft 11s 8s 18 22 mph 1007.3mb 82f 81f
7:50am 9.5ft 12s 8s 18 20 mph 1007.3mb 82f 81f
6:50am 10ft 11s 8s 16 18 mph 1007.7mb 82f 81f
5:50am 9.5ft 10s 8s 18 22 mph 1007.7mb 82f 81f
4:50am 10ft 11s 8s 18 22 mph 1008.4mb 82f 81f
3:50am 10ft 13s 8s 18 22 mph 1009.2mb 82f 81f
2:50am 10.5ft 12s 8s 18 22 mph 1009.4mb 82f 81f
1:50am 10ft 11s 8s 18 22 mph 1009.2mb 82f 81f
12:50am 11ft 12s 8s 18 22 mph 1009mb 82f 82f
Thu 10/16 11:50pm 11ft 13s 8s 18 22 mph 1008.8mb 82f 82f
10:50pm 12.5ft 12s 9s 18 20 mph 1008.1mb 82f 82f
9:50pm 12ft 12s 9s 18 22 mph 1007.7mb 82f 82f
8:50pm 11ft 12s 9s 18 22 mph 1007.5mb 82f 82f
7:50pm 12ft 13s 9s 16 22 mph 1007.8mb 82f 82f
6:50pm 12ft 13s 9s 13 18 mph 1008.1mb 82f 82f
5:50pm 13ft 12s 9s 16 20 mph 1008.7mb 82f 82f
4:50pm 12ft 13s 9s 13 18 mph 1009.3mb 82f 82f
3:50pm 13ft 11s 9s 13 18 mph 1010.1mb 82f 82f
2:50pm 11ft 12s 8s 16 18 mph 1011mb 82f 82f
1:50pm 11ft 12s 8s 13 18 mph 1011.3mb 82f 82f
12:50pm 11.5ft 13s 8s 16 18 mph 1011.1mb 82f 82f
11:50am 11ft 13s 8s 16 18 mph 1010.8mb 82f 82f
10:50am 11ft 11s 8s 11 16 mph 1010.8mb 82f 81f